Time;durP1;ratioP1;P1;durP2;ratioP2;P2;SDS_P1;SDS_P2;PMS_P1;PMS_P2;Temp;Humidity;BMP_temperature;BMP_pressure;BME280_temperature;BME280_humidity;BME280_pressure;Samples;Min_cycle;Max_cycle;Signal;HPM_P1;HPM_P2
2022/04/26 03:36:39;;;;;;;38.63;22.25;;;10.30;99.90;;;9.35;100.00;100328.28;4971117;28;20054;-77
2022/04/26 03:39:06;;;;;;;38.90;22.30;;;10.30;99.90;;;9.35;100.00;100328.28;4970506;28;20057;-77
2022/04/26 03:41:34;;;;;;;35.67;20.80;;;10.40;99.90;;;9.35;100.00;100328.28;4968938;28;21206;-76
2022/04/26 03:44:01;;;;;;;35.53;21.65;;;10.40;99.90;;;9.35;100.00;100330.16;4970886;28;20497;-77
2022/04/26 03:46:29;;;;;;;35.85;21.88;;;10.40;99.90;;;9.33;100.00;100341.19;4954195;28;20043;-77
2022/04/26 03:48:58;;;;;;;33.15;20.45;;;10.30;99.90;;;9.33;100.00;100330.34;4970664;28;20134;-77
2022/04/26 03:51:25;;;;;;;36.55;20.90;;;10.30;99.90;;;9.32;100.00;100334.06;4973602;28;20492;-77
2022/04/26 03:53:52;;;;;;;36.40;20.55;;;10.30;99.90;;;9.31;100.00;100336.94;4970751;28;20042;-77
2022/04/26 03:56:19;;;;;;;37.10;19.98;;;10.30;99.90;;;9.30;100.00;100335.28;4970634;28;20042;-76
2022/04/26 03:58:46;;;;;;;30.55;19.90;;;10.30;99.90;;;9.28;100.00;100338.16;4969580;28;20047;-76
2022/04/26 04:01:14;;;;;;;32.55;18.38;;;10.30;99.90;;;9.29;100.00;100345.31;4962723;28;20075;-77
2022/04/26 04:03:41;;;;;;;37.60;20.45;;;10.30;99.90;;;9.29;100.00;100345.31;4970971;28;20608;-76
2022/04/26 04:06:10;;;;;;;29.55;18.00;;;10.30;99.90;;;9.27;100.00;100352.78;4969304;28;20057;-78
2022/04/26 04:08:37;;;;;;;33.10;18.23;;;10.30;99.90;;;9.25;100.00;100353.97;4969467;28;20130;-77
2022/04/26 04:11:04;;;;;;;28.73;17.35;;;10.30;99.90;;;9.23;100.00;100359.59;4961798;28;20043;-77
2022/04/26 04:13:32;;;;;;;29.73;16.55;;;10.30;99.90;;;9.22;100.00;100355.19;4970978;28;20599;-76
2022/04/26 04:15:59;;;;;;;28.70;17.77;;;10.30;99.90;;;9.22;100.00;100360.63;4969244;28;20097;-76
2022/04/26 04:21:12;;;;;;;27.15;16.60;;;10.30;99.90;;;9.18;100.00;100364.72;4974165;28;20497;-76
2022/04/26 04:23:40;;;;;;;26.70;16.70;;;10.20;99.90;;;9.17;100.00;100371.16;4974492;28;20046;-77
2022/04/26 04:26:08;;;;;;;29.85;16.83;;;10.20;99.90;;;9.13;100.00;100373.38;4974651;28;20135;-76
2022/04/26 04:28:36;;;;;;;28.52;17.08;;;10.20;99.90;;;9.13;100.00;100370.69;4974325;28;20043;-76
2022/04/26 04:31:03;;;;;;;27.83;15.80;;;10.20;99.90;;;9.11;100.00;100370.00;4973323;28;20122;-77
2022/04/26 04:33:31;;;;;;;28.98;16.33;;;10.10;99.90;;;9.08;100.00;100375.81;4965474;28;20117;-76
2022/04/26 04:35:58;;;;;;;30.25;15.73;;;10.10;99.90;;;9.05;100.00;100376.16;4974367;28;20057;-76
2022/04/26 04:38:27;;;;;;;25.25;15.80;;;10.10;99.90;;;9.03;100.00;100385.50;4973131;28;20572;-77
2022/04/26 04:40:54;;;;;;;31.33;16.05;;;10.10;99.90;;;9.02;100.00;100389.25;4968171;28;20047;-77
2022/04/26 04:43:21;;;;;;;25.77;16.20;;;10.00;99.90;;;8.99;100.00;100385.03;4954907;28;20509;-76
2022/04/26 04:45:49;;;;;;;28.63;16.25;;;9.90;99.90;;;8.96;100.00;100391.63;4965404;28;20496;-76
2022/04/26 04:48:17;;;;;;;29.00;15.73;;;10.00;99.90;;;8.96;100.00;100388.91;4972277;28;20064;-77
2022/04/26 04:50:45;;;;;;;29.50;16.63;;;10.00;99.90;;;8.96;100.00;100383.50;4973067;28;20031;-76
2022/04/26 04:53:12;;;;;;;28.52;16.33;;;10.00;99.90;;;8.97;100.00;100389.78;4973671;28;20121;-76
2022/04/26 04:55:42;;;;;;;23.83;14.93;;;9.90;99.90;;;8.96;100.00;100393.50;4973191;28;20436;-77
2022/04/26 04:58:09;;;;;;;25.00;15.30;;;9.90;99.90;;;8.94;100.00;100404.53;4973526;28;20055;-76
2022/04/26 05:00:36;;;;;;;25.27;14.95;;;10.00;99.90;;;8.93;100.00;100404.72;4973552;28;20043;-76
2022/04/26 05:03:04;;;;;;;29.08;15.90;;;10.00;99.90;;;8.92;100.00;100408.47;4971508;28;20427;-76
2022/04/26 05:05:31;;;;;;;25.48;14.52;;;10.00;99.90;;;8.92;100.00;100408.47;4964844;28;20077;-76
2022/04/26 05:07:59;;;;;;;28.38;14.82;;;10.10;99.90;;;8.92;100.00;100412.00;4972688;28;20106;-76
2022/04/26 05:10:27;;;;;;;23.08;15.07;;;10.00;99.90;;;8.92;100.00;100411.16;4973136;28;20125;-76
2022/04/26 05:12:55;;;;;;;26.73;16.13;;;10.00;99.90;;;8.89;100.00;100423.25;4973000;28;20498;-76
2022/04/26 05:15:23;;;;;;;27.92;16.13;;;10.00;99.90;;;8.88;100.00;100420.69;4964003;28;20066;-76
2022/04/26 05:17:50;;;;;;;31.13;15.73;;;9.90;99.90;;;8.84;100.00;100428.34;4969696;28;20517;-76
2022/04/26 05:20:17;;;;;;;27.58;15.77;;;9.80;99.90;;;8.80;100.00;100427.00;4970403;28;20122;-77
2022/04/26 05:25:29;;;;;;;24.85;15.50;;;9.90;99.90;;;8.84;100.00;100433.75;4972711;28;20038;-76
2022/04/26 05:27:58;;;;;;;26.02;15.95;;;9.80;99.90;;;8.84;100.00;100428.34;4971664;28;20121;-76
2022/04/26 05:30:25;;;;;;;26.77;16.75;;;9.80;99.90;;;8.86;100.00;100429.00;4971270;28;20051;-76
2022/04/26 05:32:52;;;;;;;29.05;16.15;;;9.80;99.90;;;8.87;100.00;100433.44;4973153;28;20051;-76
2022/04/26 05:35:21;;;;;;;23.65;15.23;;;9.90;99.90;;;8.88;100.00;100435.09;4969552;28;23079;-77
2022/04/26 05:37:48;;;;;;;26.15;15.57;;;9.90;99.90;;;8.88;100.00;100437.81;4964896;28;20047;-77
2022/04/26 05:40:15;;;;;;;28.30;16.23;;;10.00;99.90;;;8.87;100.00;100440.69;4959792;28;20127;-77
2022/04/26 05:42:42;;;;;;;28.75;14.65;;;9.90;99.90;;;8.87;100.00;100438.84;4962939;28;20057;-76
2022/04/26 05:45:11;;;;;;;23.60;15.00;;;9.90;99.90;;;8.88;100.00;100443.25;4961948;28;20051;-76
2022/04/26 05:47:42;;;;;;;27.02;14.57;;;9.90;99.90;;;8.86;100.00;100445.28;4968355;28;20118;-77
2022/04/26 05:50:10;;;;;;;24.27;13.90;;;9.90;99.90;;;8.88;100.00;100440.53;4965784;28;20039;-77
2022/04/26 05:52:38;;;;;;;23.52;14.20;;;9.90;99.90;;;8.89;100.00;100447.66;4960875;28;20043;-77
2022/04/26 05:55:07;;;;;;;25.98;14.52;;;9.90;99.90;;;8.90;100.00;100449.34;4967749;28;20118;-77
2022/04/26 05:57:38;;;;;;;28.70;15.50;;;10.00;99.90;;;8.92;100.00;100455.44;4961400;28;20125;-77
2022/04/26 06:00:08;;;;;;;25.00;15.40;;;10.00;99.90;;;8.94;100.00;100456.09;4964516;28;20053;-77
2022/04/26 06:02:42;;;;;;;27.50;15.20;;;10.10;99.90;;;8.94;100.00;100455.25;4961136;28;20301;-77
2022/04/26 06:05:11;;;;;;;26.30;14.68;;;10.10;99.90;;;8.92;100.00;100455.44;4960101;28;20053;-77
2022/04/26 06:07:38;;;;;;;22.02;14.20;;;10.00;99.90;;;8.89;100.00;100465.78;4962370;28;20267;-76
2022/04/26 06:10:07;;;;;;;33.45;17.58;;;10.00;99.90;;;8.91;100.00;100464.63;4961653;28;20054;-77
2022/04/26 06:12:35;;;;;;;26.05;15.02;;;10.00;99.90;;;8.91;100.00;100466.47;4970146;28;20070;-77
2022/04/26 06:15:03;;;;;;;27.58;15.35;;;10.00;99.90;;;8.91;100.00;100459.19;4967303;28;20792;-76
2022/04/26 06:17:32;;;;;;;30.08;17.65;;;10.00;99.90;;;8.91;100.00;100456.47;4966606;28;20043;-76
2022/04/26 06:20:00;;;;;;;31.90;17.70;;;10.00;99.90;;;8.91;100.00;100461.91;4960610;28;20178;-76
2022/04/26 06:22:28;;;;;;;29.13;16.13;;;10.00;99.90;;;8.90;100.00;100462.91;4962255;28;20051;-76
2022/04/26 06:24:55;;;;;;;29.15;16.48;;;10.00;99.90;;;8.92;100.00;100463.56;4965276;28;20049;-76
2022/04/26 06:27:22;;;;;;;28.35;16.52;;;10.00;99.90;;;8.92;100.00;100476.31;4967456;28;20152;-76
2022/04/26 06:29:50;;;;;;;25.13;15.63;;;10.00;99.90;;;8.89;100.00;100463.94;4957921;28;20042;-76
2022/04/26 06:32:19;;;;;;;28.13;16.25;;;10.00;99.90;;;8.89;100.00;100476.66;4956176;28;20043;-76
2022/04/26 06:34:46;;;;;;;34.88;18.00;;;9.90;99.90;;;8.87;100.00;100476.84;4994522;23;20074;-76
2022/04/26 06:37:15;;;;;;;35.40;18.05;;;9.90;99.90;;;8.88;100.00;100475.81;4984121;28;20153;-76
2022/04/26 06:39:42;;;;;;;29.17;17.38;;;9.90;99.90;;;8.87;100.00;100479.56;4984921;28;20058;-76
2022/04/26 06:42:10;;;;;;;32.08;18.42;;;9.90;99.90;;;8.87;100.00;100484.13;4987850;28;20475;-76
2022/04/26 06:44:38;;;;;;;32.08;16.80;;;9.90;99.90;;;8.88;100.00;100478.53;4975360;28;20043;-76
2022/04/26 06:47:06;;;;;;;27.17;17.75;;;10.00;99.90;;;8.89;100.00;100488.38;4966876;28;20137;-76
2022/04/26 06:49:33;;;;;;;30.17;17.63;;;10.00;99.90;;;8.91;100.00;100483.63;4968155;28;20133;-76
2022/04/26 06:52:00;;;;;;;32.47;18.55;;;10.00;99.90;;;8.96;100.00;100480.38;4971855;28;20051;-76
2022/04/26 06:54:29;;;;;;;32.97;18.08;;;10.10;99.90;;;9.01;100.00;100477.97;4969555;28;20508;-76
2022/04/26 06:56:56;;;;;;;32.13;19.00;;;10.10;99.90;;;9.06;100.00;100475.56;4971238;28;20043;-76
2022/04/26 06:59:23;;;;;;;31.27;19.30;;;10.20;99.90;;;9.10;100.00;100478.78;4961217;28;20045;-76
2022/04/26 07:01:52;;;;;;;33.15;19.17;;;10.30;99.90;;;9.16;100.00;100475.38;4967072;28;20090;-76
2022/04/26 07:04:20;;;;;;;37.65;21.08;;;10.40;99.90;;;9.21;100.00;100483.81;4968605;28;20076;-76
2022/04/26 07:06:47;;;;;;;35.85;21.52;;;10.50;99.90;;;9.17;100.00;100486.03;4971729;28;20062;-76
2022/04/26 07:09:15;;;;;;;42.60;24.02;;;10.40;99.90;;;9.21;100.00;100489.25;4966338;28;20512;-75
2022/04/26 07:11:45;;;;;;;33.08;20.23;;;10.50;99.90;;;9.21;100.00;100491.97;4972081;28;20066;-76
2022/04/26 07:14:13;;;;;;;35.65;20.63;;;10.40;99.90;;;9.26;100.00;100491.47;4968865;28;20043;-76
2022/04/26 07:16:40;;;;;;;34.20;20.08;;;10.50;99.90;;;9.29;100.00;100488.38;4971183;28;20463;-76
2022/04/26 07:19:08;;;;;;;42.80;22.92;;;10.50;99.90;;;9.31;100.00;100489.03;4954763;28;20417;-76
2022/04/26 07:21:35;;;;;;;37.22;22.00;;;10.50;99.90;;;9.32;100.00;100486.16;4971692;28;20634;-76
2022/04/26 07:24:04;;;;;;;38.63;21.90;;;10.60;99.90;;;9.35;100.00;100496.66;4968898;28;20057;-77
2022/04/26 07:26:31;;;;;;;36.30;22.25;;;10.60;99.90;;;9.35;100.00;100496.66;4971050;28;20051;-76
2022/04/26 07:29:00;;;;;;;38.85;23.00;;;10.60;99.90;;;9.38;100.00;100503.59;4958370;28;20441;-76
2022/04/26 07:31:29;;;;;;;32.35;21.13;;;10.60;99.90;;;9.39;100.00;100505.31;4962594;28;20054;-76
2022/04/26 07:36:41;;;;;;;38.85;24.25;;;10.50;99.90;;;9.39;100.00;100502.59;4969178;28;20101;-77
2022/04/26 07:39:08;;;;;;;39.60;24.02;;;10.50;99.90;;;9.41;100.00;100505.13;4967080;28;20042;-76
2022/04/26 07:41:35;;;;;;;44.00;23.38;;;10.60;99.90;;;9.44;100.00;100507.47;4971076;28;20122;-76
2022/04/26 07:44:04;;;;;;;43.13;25.55;;;10.70;99.90;;;9.45;100.00;100509.19;4969888;28;20049;-77
2022/04/26 07:46:31;;;;;;;43.30;26.23;;;10.60;99.90;;;9.47;100.00;100516.13;4970219;28;20493;-78
2022/04/26 07:48:59;;;;;;;46.42;27.25;;;10.70;99.90;;;9.54;100.00;100513.56;4969602;28;20089;-77
2022/04/26 07:51:26;;;;;;;45.97;26.80;;;10.70;99.90;;;9.61;100.00;100517.22;4963424;28;20127;-78
2022/04/26 07:53:53;;;;;;;43.50;26.10;;;10.80;99.90;;;9.67;100.00;100516.53;4961206;28;20038;-77
2022/04/26 07:56:21;;;;;;;44.80;28.17;;;10.90;99.90;;;9.70;100.00;100527.03;4969155;28;20035;-77
2022/04/26 07:58:48;;;;;;;42.03;25.75;;;10.90;99.90;;;9.72;100.00;100522.28;4968708;28;20468;-77
2022/04/26 08:01:17;;;;;;;42.80;25.75;;;11.00;99.90;;;9.78;100.00;100526.16;4966473;28;20047;-77
2022/04/26 08:03:44;;;;;;;42.78;26.15;;;11.10;99.90;;;9.80;100.00;100521.38;4970952;28;20531;-77
2022/04/26 08:06:11;;;;;;;43.65;26.00;;;11.10;99.90;;;9.83;100.00;100526.47;4969589;28;20070;-77
2022/04/26 08:08:39;;;;;;;43.33;26.30;;;11.20;99.90;;;9.85;100.00;100527.13;4962784;28;20038;-77
2022/04/26 08:11:11;;;;;;;41.55;27.70;;;11.20;99.90;;;9.83;100.00;100531.91;4961581;28;20405;-77
2022/04/26 08:13:39;;;;;;;42.97;27.45;;;11.10;99.90;;;9.86;100.00;100536.13;4966485;28;20090;-77
2022/04/26 08:16:07;;;;;;;48.08;30.73;;;11.10;99.90;;;9.89;100.00;100543.94;4969376;28;20043;-77
2022/04/26 08:18:36;;;;;;;46.67;30.27;;;11.20;99.90;;;9.93;100.00;100540.66;4967600;28;20516;-77
2022/04/26 08:21:03;;;;;;;46.67;30.50;;;11.20;99.90;;;9.93;100.00;100542.53;4965187;28;20145;-77
2022/04/26 08:23:31;;;;;;;51.10;32.45;;;11.20;99.90;;;9.96;100.00;100542.19;4969736;28;20122;-77
2022/04/26 08:28:45;;;;;;;57.10;36.40;;;11.30;99.90;;;10.05;100.00;100553.84;4963780;28;20031;-77
2022/04/26 08:31:13;;;;;;;59.88;39.25;;;11.30;99.90;;;10.09;100.00;100547.88;4963677;28;20524;-77
2022/04/26 08:33:41;;;;;;;65.85;44.08;;;11.40;99.90;;;10.13;100.00;100559.25;4960512;28;20050;-77
2022/04/26 08:36:09;;;;;;;62.75;42.53;;;11.40;99.90;;;10.13;100.00;100546.47;4966936;28;20043;-76
2022/04/26 08:38:36;;;;;;;74.05;46.33;;;11.60;99.90;;;10.17;100.00;100547.81;4969612;28;20130;-77
2022/04/26 08:41:03;;;;;;;61.80;43.15;;;11.50;99.90;;;10.21;100.00;100550.19;4969744;28;20047;-77
2022/04/26 08:43:33;;;;;;;62.47;43.45;;;11.50;99.90;;;10.23;100.00;100559.84;4967159;28;20055;-77
2022/04/26 08:46:02;;;;;;;66.45;44.15;;;11.50;99.90;;;10.28;100.00;100562.00;4961468;28;20046;-77
2022/04/26 08:51:15;;;;;;;53.95;36.20;;;11.60;99.90;;;10.34;100.00;100564.03;4970413;28;20042;-77
2022/04/26 08:53:44;;;;;;;54.08;38.35;;;11.70;99.90;;;10.42;100.00;100576.75;4964206;28;20497;-77
2022/04/26 08:56:12;;;;;;;61.47;43.42;;;11.80;99.90;;;10.47;100.00;100571.56;4961771;28;20081;-77
2022/04/26 08:58:40;;;;;;;62.15;42.17;;;11.80;99.90;;;10.53;100.00;100571.69;4967183;28;20031;-76
2022/04/26 09:01:13;;;;;;;59.03;40.75;;;11.90;99.90;;;10.63;100.00;100576.06;4959775;28;20075;-77
2022/04/26 09:03:54;;;;;;;59.28;41.50;;;12.00;99.90;;;10.69;100.00;100569.88;4963044;28;20050;-77
2022/04/26 09:06:25;;;;;;;57.60;39.92;;;12.10;99.90;;;10.77;100.00;100572.50;4964448;28;20054;-76
2022/04/26 09:09:06;;;;;;;53.45;39.05;;;12.20;99.90;;;10.82;99.43;100571.97;4973338;28;20039;-77
2022/04/26 09:11:34;;;;;;;49.35;34.40;;;12.20;99.90;;;10.89;100.00;100581.06;4965289;28;20235;-77
2022/04/26 09:14:03;;;;;;;48.58;34.72;;;12.30;99.90;;;10.95;99.92;100586.63;4973437;28;20051;-76
2022/04/26 09:16:30;;;;;;;51.20;37.63;;;12.40;99.90;;;11.05;100.00;100590.97;4972459;28;20098;-77
2022/04/26 09:18:59;;;;;;;51.70;35.35;;;12.50;99.90;;;11.13;100.00;100588.16;4973290;28;20043;-77
2022/04/26 09:21:30;;;;;;;49.75;33.92;;;12.60;99.90;;;11.21;100.00;100592.66;4969664;28;20497;-77
2022/04/26 09:24:00;;;;;;;45.97;34.33;;;12.60;99.90;;;11.25;100.00;100586.66;4972196;28;20122;-76
2022/04/26 09:26:35;;;;;;;45.60;31.92;;;12.70;99.90;;;11.37;100.00;100588.94;4966620;28;20432;-77
2022/04/26 09:29:03;;;;;;;42.83;30.83;;;12.80;99.90;;;11.43;99.22;100586.28;4970965;28;20489;-76
2022/04/26 09:31:32;;;;;;;43.25;29.60;;;12.90;99.90;;;11.44;98.17;100600.75;4973364;28;20071;-77
2022/04/26 09:34:04;;;;;;;42.47;32.00;;;12.90;99.90;;;11.50;98.64;100602.75;4973217;28;20046;-77
2022/04/26 09:36:42;;;;;;;42.90;31.77;;;12.90;99.90;;;11.52;98.86;100606.97;4968277;28;20057;-76
2022/04/26 09:39:10;;;;;;;42.92;29.40;;;12.90;99.90;;;11.50;97.67;100600.00;4967792;28;20497;-76
2022/04/26 09:41:37;;;;;;;36.65;27.92;;;12.80;99.90;;;11.45;95.86;100613.34;4972389;28;20061;-76
2022/04/26 09:44:07;;;;;;;42.85;30.50;;;12.70;99.90;;;11.49;97.76;100614.66;4971881;28;20047;-76
2022/04/26 09:46:53;;;;;;;36.95;26.20;;;12.70;99.90;;;11.51;97.46;100615.31;4970927;28;20039;-76
2022/04/26 09:49:22;;;;;;;33.90;23.13;;;12.80;99.90;;;11.52;97.11;100617.03;4970103;28;20061;-76
2022/04/26 09:51:54;;;;;;;38.25;24.85;;;12.80;99.90;;;11.58;96.99;100621.72;4969772;28;20085;-77
2022/04/26 09:54:22;;;;;;;32.63;24.08;;;12.80;99.90;;;11.65;96.80;100619.94;4973050;28;20042;-76
2022/04/26 09:56:51;;;;;;;34.03;23.08;;;13.00;99.90;;;11.76;97.42;100626.75;4969296;28;20118;-77
2022/04/26 09:59:27;;;;;;;30.70;22.05;;;13.10;99.90;;;11.83;95.92;100624.13;4971852;28;20133;-77
2022/04/26 10:01:57;;;;;;;30.60;20.83;;;13.20;99.90;;;11.88;94.83;100618.94;4968906;28;20126;-77
2022/04/26 10:04:27;;;;;;;30.05;20.17;;;13.30;99.90;;;11.93;95.22;100617.34;4966037;28;20038;-77
2022/04/26 10:07:03;;;;;;;33.33;20.38;;;13.40;99.90;;;11.99;93.22;100626.66;4972048;28;20051;-77
2022/04/26 10:09:31;;;;;;;31.05;21.02;;;13.30;99.90;;;11.99;92.72;100623.09;4971266;28;20047;-77
2022/04/26 10:12:00;;;;;;;31.05;20.85;;;13.30;99.90;;;11.97;91.26;100636.09;4967377;28;20047;-77
2022/04/26 10:14:30;;;;;;;31.30;21.25;;;13.20;99.90;;;11.93;91.30;100621.97;4961417;28;20093;-77
2022/04/26 10:16:58;;;;;;;31.98;21.48;;;13.20;99.90;;;12.01;92.54;100631.94;4966684;28;20047;-77
2022/04/26 10:19:38;;;;;;;29.58;19.98;;;13.30;99.90;;;12.08;92.57;100620.06;4972219;28;20045;-77
2022/04/26 10:22:10;;;;;;;26.77;20.13;;;13.40;99.90;;;12.12;92.05;100621.34;4967480;28;20039;-77
2022/04/26 10:24:39;;;;;;;32.53;20.90;;;13.50;99.90;;;12.23;92.90;100621.91;4964433;28;20047;-80
2022/04/26 10:27:20;;;;;;;27.20;19.27;;;13.60;99.90;;;12.27;92.60;100620.47;4969994;28;20268;-77
2022/04/26 10:29:48;;;;;;;29.55;18.83;;;13.60;99.90;;;12.30;92.07;100622.84;4968900;28;20047;-77
2022/04/26 10:32:31;;;;;;;27.25;18.63;;;13.70;99.90;;;12.34;89.61;100629.59;4964566;28;20130;-77
2022/04/26 10:35:30;;;;;;;25.05;18.65;;;13.70;99.90;;;12.41;90.56;100624.19;4962977;28;20528;-77
2022/04/26 10:38:15;;;;;;;25.85;18.08;;;13.80;99.90;;;12.44;91.07;100619.19;4968145;28;20057;-77
2022/04/26 10:41:08;;;;;;;27.52;19.02;;;13.90;99.90;;;12.49;90.70;100633.13;4963083;28;20829;-76
2022/04/26 10:43:35;;;;;;;28.92;18.38;;;13.90;99.90;;;12.52;89.96;100627.25;4969068;28;20039;-77
2022/04/26 10:46:11;;;;;;;29.98;18.42;;;13.90;99.90;;;12.58;89.75;100619.31;4971044;28;20417;-77
2022/04/26 10:48:38;;;;;;;25.17;18.40;;;14.00;99.20;;;12.61;89.08;100629.88;4971207;28;20072;-77
2022/04/26 10:51:33;;;;;;;28.60;18.73;;;14.00;98.70;;;12.68;90.05;100630.78;4971327;28;20122;-77
2022/04/26 10:54:03;;;;;;;27.75;18.85;;;14.10;99.90;;;12.71;88.79;100636.66;4961568;28;20102;-77
2022/04/26 10:56:30;;;;;;;24.70;17.95;;;14.10;98.60;;;12.73;89.01;100628.28;4964974;28;20043;-77
2022/04/26 10:58:58;;;;;;;27.73;18.23;;;14.20;99.60;;;12.76;89.68;100633.38;4970375;28;20070;-77
2022/04/26 11:01:27;;;;;;;36.70;19.23;;;14.10;99.90;;;12.76;89.79;100630.63;4956126;28;20141;-76
2022/04/26 11:03:55;;;;;;;37.25;21.10;;;14.10;99.90;;;12.81;89.65;100633.63;4966845;28;20047;-77
2022/04/26 11:06:39;;;;;;;25.75;19.25;;;14.10;99.90;;;12.80;89.33;100634.66;4959202;28;20049;-76
2022/04/26 11:09:10;;;;;;;25.45;19.63;;;14.20;99.90;;;12.81;89.50;100639.09;4969560;28;20073;-77
2022/04/26 11:11:51;;;;;;;28.13;20.20;;;14.10;99.50;;;12.81;88.57;100638.22;4969466;28;20069;-77
2022/04/26 11:14:20;;;;;;;32.50;20.83;;;14.10;99.30;;;12.79;88.16;100632.97;4972630;28;20066;-78
2022/04/26 11:16:58;;;;;;;30.60;19.65;;;14.10;98.90;;;12.81;88.58;100636.38;4965171;28;20066;-77
2022/04/26 11:19:30;;;;;;;26.90;19.08;;;14.10;99.50;;;12.85;88.70;100643.13;4969878;28;20527;-75
2022/04/26 11:21:58;;;;;;;28.13;19.90;;;14.20;99.20;;;12.85;87.57;100640.41;4965977;28;20089;-75
2022/04/26 11:30:10;;;;;;;26.52;18.52;;;14.20;98.50;;;12.91;87.01;100644.22;4961087;28;20089;-75
2022/04/26 11:32:42;;;;;;;28.13;20.42;;;14.20;98.10;;;12.90;87.71;100650.72;4969861;28;20070;-75
2022/04/26 11:35:11;;;;;;;31.65;23.05;;;14.20;98.90;;;12.88;86.94;100647.34;4965082;28;20054;-75
2022/04/26 11:37:45;;;;;;;31.38;21.77;;;14.10;97.90;;;12.85;86.67;100647.72;4959656;28;20035;-75
2022/04/26 11:40:23;;;;;;;28.33;21.98;;;14.10;98.70;;;12.83;87.74;100650.66;4963074;28;20037;-75
2022/04/26 11:42:51;;;;;;;30.63;22.92;;;14.10;99.50;;;12.83;88.45;100656.13;4962996;28;20046;-75
2022/04/26 11:45:18;;;;;;;36.53;23.48;;;14.10;99.90;;;12.81;88.26;100658.22;4968761;28;20046;-75
2022/04/26 11:47:49;;;;;;;30.17;21.98;;;14.00;99.40;;;12.80;88.35;100653.78;4962604;28;20501;-75
2022/04/26 11:50:19;;;;;;;33.05;23.02;;;14.00;99.90;;;12.82;88.81;100659.88;4967294;28;20047;-76
2022/04/26 11:52:48;;;;;;;29.83;22.85;;;14.00;99.90;;;12.82;89.23;100664.53;4971021;28;20039;-75
2022/04/26 11:55:29;;;;;;;35.30;25.55;;;14.00;99.90;;;12.81;91.04;100663.69;4961145;28;20043;-75
2022/04/26 11:58:14;;;;;;;36.88;26.90;;;14.00;99.90;;;12.81;91.40;100674.59;4967025;28;20536;-75
2022/04/26 12:01:02;;;;;;;39.72;28.10;;;14.00;99.90;;;12.81;92.55;100674.59;4959266;28;20499;-75
2022/04/26 12:03:32;;;;;;;38.70;28.10;;;14.10;99.90;;;12.83;92.78;100672.53;4965782;28;20501;-75
2022/04/26 12:06:03;;;;;;;36.22;26.60;;;14.10;99.90;;;12.84;93.59;100666.00;4962523;28;20058;-76
2022/04/26 12:08:36;;;;;;;35.55;27.52;;;14.10;99.90;;;12.85;94.11;100664.97;4966003;28;20031;-76
2022/04/26 12:11:22;;;;;;;36.13;27.13;;;14.10;99.90;;;12.88;94.06;100672.75;4966614;28;20520;-75
2022/04/26 12:14:01;;;;;;;35.42;26.05;;;14.20;99.90;;;12.88;93.80;100672.75;4965540;28;20508;-76
2022/04/26 12:16:30;;;;;;;38.85;26.20;;;14.20;99.90;;;12.88;93.93;100661.00;4965523;28;20039;-75
2022/04/26 12:19:00;;;;;;;32.53;25.65;;;14.20;99.90;;;12.89;94.01;100663.53;4965501;28;20074;-75
2022/04/26 12:21:28;;;;;;;31.58;23.63;;;14.20;99.90;;;12.91;92.07;100669.66;4963356;28;20133;-76
2022/04/26 12:24:13;;;;;;;34.10;25.63;;;14.20;99.90;;;12.94;93.30;100668.41;4967843;28;20046;-75
2022/04/26 12:26:54;;;;;;;32.63;23.85;;;14.20;99.90;;;12.96;92.31;100669.03;4965633;28;20038;-76
2022/04/26 12:29:23;;;;;;;31.80;22.90;;;14.20;99.90;;;12.95;90.97;100661.91;4966895;28;20050;-77
2022/04/26 12:31:51;;;;;;;33.38;23.27;;;14.20;99.90;;;13.00;91.70;100666.78;4963211;28;20039;-77
2022/04/26 12:34:21;;;;;;;30.60;23.35;;;14.20;99.90;;;13.03;91.73;100655.47;4969912;28;20081;-77
2022/04/26 12:36:58;;;;;;;31.88;23.13;;;14.30;99.90;;;13.06;91.58;100655.03;4970192;28;20074;-75
2022/04/26 12:39:40;;;;;;;28.55;21.75;;;14.40;99.90;;;13.08;91.02;100659.28;4964194;28;20042;-76
2022/04/26 12:42:09;;;;;;;31.33;21.40;;;14.30;99.40;;;13.07;89.33;100654.00;4969555;28;20565;-76
2022/04/26 12:44:48;;;;;;;27.92;21.77;;;14.40;99.90;;;13.08;89.38;100661.19;4973006;28;20039;-76
2022/04/26 12:52:53;;;;;;;30.88;22.63;;;14.40;99.90;;;13.08;89.43;100666.66;4970716;28;20038;-75
2022/04/26 12:55:31;;;;;;;32.80;25.63;;;14.30;99.90;;;13.07;89.32;100667.69;4970865;28;20489;-76
2022/04/26 12:58:02;;;;;;;31.42;23.35;;;14.40;99.90;;;13.07;89.67;100659.47;4971575;28;20047;-77
2022/04/26 13:00:31;;;;;;;34.15;25.05;;;14.30;99.90;;;13.10;90.58;100664.56;4968572;28;20062;-77
2022/04/26 13:03:05;;;;;;;30.95;24.65;;;14.30;99.90;;;13.13;91.96;100661.41;4972757;28;20358;-76
2022/04/26 13:05:41;;;;;;;37.80;24.77;;;14.40;99.90;;;13.16;93.23;100661.03;4969550;28;20461;-76
2022/04/26 13:08:10;;;;;;;32.22;23.38;;;14.50;99.90;;;13.18;92.61;100661.66;4970180;28;20070;-76
2022/04/26 13:13:16;;;;;;;32.08;24.08;;;14.40;99.90;;;13.14;90.57;100657.66;4960372;28;20069;-79
2022/04/26 13:15:44;;;;;;;31.35;23.55;;;14.40;99.90;;;13.16;90.78;100661.03;4969590;28;20046;-79
2022/04/26 13:18:15;;;;;;;30.80;23.20;;;14.50;99.90;;;13.20;90.40;100665.06;4965431;28;20340;-79
2022/04/26 13:20:44;;;;;;;28.10;21.83;;;14.60;99.90;;;13.24;91.02;100665.50;4966343;28;20039;-79
2022/04/26 13:23:11;;;;;;;27.95;22.85;;;14.60;99.90;;;13.28;90.36;100664.91;4963269;28;20129;-79
2022/04/26 13:25:38;;;;;;;30.92;22.92;;;14.60;99.80;;;13.29;90.31;100663.88;4971928;28;20081;-79
2022/04/26 13:28:07;;;;;;;27.48;21.40;;;14.70;99.90;;;13.32;89.81;100664.53;4961454;28;20106;-79
2022/04/26 13:30:36;;;;;;;27.50;20.25;;;14.70;98.90;;;13.34;89.82;100668.75;4970019;28;20078;-79
2022/04/26 13:33:04;;;;;;;30.85;21.73;;;14.70;99.90;;;13.37;89.49;100662.06;4967896;28;20042;-79
2022/04/26 13:35:31;;;;;;;25.75;19.92;;;14.70;99.30;;;13.38;89.17;100669.19;4961623;28;20035;-79
2022/04/26 13:37:59;;;;;;;30.00;20.40;;;14.70;98.90;;;13.38;87.42;100666.47;4962425;28;20047;-79
2022/04/26 13:40:26;;;;;;;25.30;19.55;;;14.70;97.80;;;13.37;86.63;100662.91;4965817;28;20039;-79
2022/04/26 13:42:53;;;;;;;25.15;20.42;;;14.70;97.80;;;13.38;87.36;100663.75;4968768;28;20041;-79
2022/04/26 13:45:21;;;;;;;26.33;19.00;;;14.70;98.40;;;13.41;86.91;100668.81;4966364;28;20504;-79
2022/04/26 13:47:51;;;;;;;27.00;20.17;;;14.70;97.50;;;13.41;87.14;100672.38;4968238;28;20051;-79
2022/04/26 13:50:18;;;;;;;26.17;18.85;;;14.70;98.20;;;13.40;86.50;100675.31;4966490;28;20046;-79
2022/04/26 13:52:45;;;;;;;24.42;17.95;;;14.60;98.10;;;13.39;86.46;100681.84;4962353;28;20117;-79
2022/04/26 13:55:17;;;;;;;24.13;17.80;;;14.60;98.10;;;13.34;83.39;100684.31;4967769;28;20118;-79
2022/04/26 13:57:44;;;;;;;;;;;14.50;94.60;;;13.31;83.90;100682.84;4969127;28;20035;-79
2022/04/26 14:00:13;;;;;;;27.55;17.45;;;14.60;96.90;;;13.27;83.96;100682.34;4963860;28;19929;-79
2022/04/26 14:02:44;;;;;;;22.38;17.95;;;14.50;96.90;;;13.26;84.37;100686.13;4961200;28;20027;-79
2022/04/26 14:05:13;;;;;;;21.90;17.00;;;14.50;96.90;;;13.27;84.36;100689.72;4969772;28;20085;-79
2022/04/26 14:07:41;;;;;;;29.20;17.77;;;14.40;97.10;;;13.25;84.88;100691.78;4961904;28;20117;-78
2022/04/26 14:10:09;;;;;;;19.73;15.52;;;14.40;97.60;;;13.22;84.65;100692.19;4970028;28;20047;-79
2022/04/26 14:12:37;;;;;;;22.80;16.08;;;14.30;96.20;;;13.11;82.27;100699.84;4967513;28;20049;-78
2022/04/26 14:23:22;;;;;;;35.50;24.58;;;14.00;99.90;;;12.97;86.62;100699.97;4965753;28;20098;-78